sensor_id;sensor_type;location;lat;lon;timestamp;pressure;altitude;pressure_sealevel;temperature;humidity
11692;BME280;33659;42.672;23.354;2023-06-24T00:00:08;69570.06;;;24.76;62.47
11692;BME280;33659;42.672;23.354;2023-06-24T00:02:37;69642.69;;;24.74;62.54
11692;BME280;33659;42.672;23.354;2023-06-24T00:05:06;69568.44;;;24.74;62.04
11692;BME280;33659;42.672;23.354;2023-06-24T00:07:33;69635.03;;;24.67;62.35
11692;BME280;33659;42.672;23.354;2023-06-24T00:10:09;69539.41;;;24.62;62.44
11692;BME280;33659;42.672;23.354;2023-06-24T00:12:37;69630.66;;;24.63;62.38
11692;BME280;33659;42.672;23.354;2023-06-24T00:15:06;69556.41;;;24.63;62.46
11692;BME280;33659;42.672;23.354;2023-06-24T00:17:33;69632.81;;;24.65;62.55
11692;BME280;33659;42.672;23.354;2023-06-24T00:20:00;69559.22;;;24.68;62.49
11692;BME280;33659;42.672;23.354;2023-06-24T00:22:29;69566.78;;;24.73;62.55
11692;BME280;33659;42.672;23.354;2023-06-24T00:24:56;69560.78;;;24.67;62.67
11692;BME280;33659;42.672;23.354;2023-06-24T00:27:23;69631.19;;;24.64;62.89
11692;BME280;33659;42.672;23.354;2023-06-24T00:29:51;69542.22;;;24.50;63.10
11692;BME280;33659;42.672;23.354;2023-06-24T00:32:18;69538.38;;;24.46;63.00
11692;BME280;33659;42.672;23.354;2023-06-24T00:34:45;69606.59;;;24.41;63.33
11692;BME280;33659;42.672;23.354;2023-06-24T00:37:13;69524.91;;;24.39;63.51
11692;BME280;33659;42.672;23.354;2023-06-24T00:39:39;69530.75;;;24.39;63.59
11692;BME280;33659;42.672;23.354;2023-06-24T00:42:06;69530.22;;;24.39;63.34
11692;BME280;33659;42.672;23.354;2023-06-24T00:44:33;69600.06;;;24.35;63.39
11692;BME280;33659;42.672;23.354;2023-06-24T00:47:05;69520.38;;;24.29;63.62
11692;BME280;33659;42.672;23.354;2023-06-24T00:49:32;69517.63;;;24.27;64.18
11692;BME280;33659;42.672;23.354;2023-06-24T00:51:58;69587.53;;;24.25;63.96
11692;BME280;33659;42.672;23.354;2023-06-24T00:54:26;69518.81;;;24.30;63.87
11692;BME280;33659;42.672;23.354;2023-06-24T00:56:56;69524.19;;;24.33;63.91
11692;BME280;33659;42.672;23.354;2023-06-24T00:59:27;69517.63;;;24.27;63.98
11692;BME280;33659;42.672;23.354;2023-06-24T01:01:55;69582.00;;;24.18;64.14
11692;BME280;33659;42.672;23.354;2023-06-24T01:04:23;69503.97;;;24.14;63.94
11692;BME280;33659;42.672;23.354;2023-06-24T01:06:51;69510.00;;;24.20;63.88
11692;BME280;33659;42.672;23.354;2023-06-24T01:09:18;69512.03;;;24.17;64.11
11692;BME280;33659;42.672;23.354;2023-06-24T01:11:45;69567.88;;;24.07;64.25
11692;BME280;33659;42.672;23.354;2023-06-24T01:14:12;69492.06;;;24.05;64.22
11692;BME280;33659;42.672;23.354;2023-06-24T01:16:44;69486.53;;;23.98;64.55
11692;BME280;33659;42.672;23.354;2023-06-24T01:19:38;69483.19;;;23.92;64.52
11692;BME280;33659;42.672;23.354;2023-06-24T01:22:22;69471.25;;;23.84;64.87
11692;BME280;33659;42.672;23.354;2023-06-24T01:25:04;69446.69;;;23.61;65.27
11692;BME280;33659;42.672;23.354;2023-06-24T01:27:55;69436.88;;;23.51;65.78
11692;BME280;33659;42.672;23.354;2023-06-24T01:30:55;69494.66;;;23.39;66.26
11692;BME280;33659;42.672;23.354;2023-06-24T01:33:33;69484.94;;;23.32;66.55
11692;BME280;33659;42.672;23.354;2023-06-24T01:36:03;69478.91;;;23.27;66.91
11692;BME280;33659;42.672;23.354;2023-06-24T01:38:36;69476.72;;;23.24;66.84
11692;BME280;33659;42.672;23.354;2023-06-24T01:41:08;69483.75;;;23.29;66.88
11692;BME280;33659;42.672;23.354;2023-06-24T01:43:37;69487.47;;;23.30;66.95
11692;BME280;33659;42.672;23.354;2023-06-24T01:46:09;69421.03;;;23.37;66.66
11692;BME280;33659;42.672;23.354;2023-06-24T01:48:42;69427.59;;;23.43;66.04
11692;BME280;33659;42.672;23.354;2023-06-24T01:51:13;69428.13;;;23.43;65.95
11692;BME280;33659;42.672;23.354;2023-06-24T01:53:44;69426.03;;;23.44;65.80
11692;BME280;33659;42.672;23.354;2023-06-24T01:56:14;69430.22;;;23.43;66.69
11692;BME280;33659;42.672;23.354;2023-06-24T01:58:43;69497.94;;;23.42;67.18
11692;BME280;33659;42.672;23.354;2023-06-24T02:01:12;69503.88;;;23.45;67.25
11692;BME280;33659;42.672;23.354;2023-06-24T02:03:42;69513.78;;;23.57;66.52
11692;BME280;33659;42.672;23.354;2023-06-24T02:06:09;69507.22;;;23.50;66.34
11692;BME280;33659;42.672;23.354;2023-06-24T02:08:38;69447.25;;;23.61;66.46
11692;BME280;33659;42.672;23.354;2023-06-24T02:11:08;69448.88;;;23.63;66.63
11692;BME280;33659;42.672;23.354;2023-06-24T02:13:35;69454.88;;;23.68;66.50
11692;BME280;33659;42.672;23.354;2023-06-24T02:16:06;69452.69;;;23.66;66.48
11692;BME280;33659;42.672;23.354;2023-06-24T02:18:35;69529.66;;;23.71;66.25
11692;BME280;33659;42.672;23.354;2023-06-24T02:21:05;69459.88;;;23.75;65.65
11692;BME280;33659;42.672;23.354;2023-06-24T02:23:33;69550.94;;;23.91;65.35
11692;BME280;33659;42.672;23.354;2023-06-24T02:26:01;69473.44;;;23.86;64.75
11692;BME280;33659;42.672;23.354;2023-06-24T02:28:30;69494.72;;;24.05;65.06
11692;BME280;33659;42.672;23.354;2023-06-24T02:30:57;69574.44;;;24.13;64.89
11692;BME280;33659;42.672;23.354;2023-06-24T02:33:24;69568.41;;;24.08;65.14
11692;BME280;33659;42.672;23.354;2023-06-24T02:35:51;69557.50;;;23.97;65.70
11692;BME280;33659;42.672;23.354;2023-06-24T02:38:20;69549.31;;;23.90;66.22
11692;BME280;33659;42.672;23.354;2023-06-24T02:40:46;69465.78;;;23.78;67.11
11692;BME280;33659;42.672;23.354;2023-06-24T02:43:13;69531.81;;;23.73;67.83
11692;BME280;33659;42.672;23.354;2023-06-24T02:45:41;69457.06;;;23.70;68.05
11692;BME280;33659;42.672;23.354;2023-06-24T02:48:08;69454.88;;;23.68;68.44
11692;BME280;33659;42.672;23.354;2023-06-24T02:50:37;69455.41;;;23.69;68.76
11692;BME280;33659;42.672;23.354;2023-06-24T02:53:05;69521.44;;;23.64;69.12
11692;BME280;33659;42.672;23.354;2023-06-24T02:55:34;69451.16;;;23.67;69.16
11692;BME280;33659;42.672;23.354;2023-06-24T02:58:02;69458.16;;;23.71;68.97
11692;BME280;33659;42.672;23.354;2023-06-24T03:00:29;69460.97;;;23.76;68.96
11692;BME280;33659;42.672;23.354;2023-06-24T03:02:59;69541.19;;;23.85;68.67
11692;BME280;33659;42.672;23.354;2023-06-24T03:05:27;69544.94;;;23.86;68.73
11692;BME280;33659;42.672;23.354;2023-06-24T03:07:54;69470.16;;;23.83;68.70
11692;BME280;33659;42.672;23.354;2023-06-24T03:10:23;69468.63;;;23.84;68.78
11692;BME280;33659;42.672;23.354;2023-06-24T03:12:51;69539.47;;;23.81;68.85
11692;BME280;33659;42.672;23.354;2023-06-24T03:15:19;69467.34;;;23.77;69.10
11692;BME280;33659;42.672;23.354;2023-06-24T03:17:46;69459.25;;;23.72;69.18
11692;BME280;33659;42.672;23.354;2023-06-24T03:20:13;69502.84;;;23.46;69.93
11692;BME280;33659;42.672;23.354;2023-06-24T03:22:39;69525.25;;;23.67;69.88
11692;BME280;33659;42.672;23.354;2023-06-24T03:25:07;69466.34;;;23.79;69.56
11692;BME280;33659;42.672;23.354;2023-06-24T03:27:33;69545.56;;;23.89;69.47
11692;BME280;33659;42.672;23.354;2023-06-24T03:30:04;69561.31;;;24.01;69.16
11692;BME280;33659;42.672;23.354;2023-06-24T03:32:31;69571.69;;;24.11;68.73
11692;BME280;33659;42.672;23.354;2023-06-24T03:35:00;69496.66;;;24.17;68.38
11692;BME280;33659;42.672;23.354;2023-06-24T03:37:27;69519.81;;;24.29;68.04
11692;BME280;33659;42.672;23.354;2023-06-24T03:39:55;69528.56;;;24.37;67.74
11692;BME280;33659;42.672;23.354;2023-06-24T03:42:22;69535.13;;;24.43;67.32
11692;BME280;33659;42.672;23.354;2023-06-24T03:44:49;69606.16;;;24.43;67.38
11692;BME280;33659;42.672;23.354;2023-06-24T03:47:17;69544.94;;;24.52;67.54
11692;BME280;33659;42.672;23.354;2023-06-24T03:49:44;69623.53;;;24.56;66.96
11692;BME280;33659;42.672;23.354;2023-06-24T03:52:11;69547.75;;;24.57;67.14
11692;BME280;33659;42.672;23.354;2023-06-24T03:54:37;69628.00;;;24.63;66.83
11692;BME280;33659;42.672;23.354;2023-06-24T03:57:06;69545.25;;;24.63;66.96
11692;BME280;33659;42.672;23.354;2023-06-24T03:59:34;69611.63;;;24.48;66.80
11692;BME280;33659;42.672;23.354;2023-06-24T04:02:00;69557.50;;;24.64;66.25
11692;BME280;33659;42.672;23.354;2023-06-24T04:04:28;69550.94;;;24.58;66.57
11692;BME280;33659;42.672;23.354;2023-06-24T04:06:55;69606.59;;;24.41;67.46
11692;BME280;33659;42.672;23.354;2023-06-24T04:09:22;69587.53;;;24.25;68.21
11692;BME280;33659;42.672;23.354;2023-06-24T04:11:49;69517.63;;;24.27;68.34
11692;BME280;33659;42.672;23.354;2023-06-24T04:14:15;69593.56;;;24.31;67.94
11692;BME280;33659;42.672;23.354;2023-06-24T04:16:42;69523.75;;;24.35;68.04
11692;BME280;33659;42.672;23.354;2023-06-24T04:19:09;69606.16;;;24.43;67.62
11692;BME280;33659;42.672;23.354;2023-06-24T04:21:37;69603.94;;;24.41;67.33
11692;BME280;33659;42.672;23.354;2023-06-24T04:24:04;69512.19;;;24.22;67.82
11692;BME280;33659;42.672;23.354;2023-06-24T04:26:31;69553.66;;;23.94;68.88
11692;BME280;33659;42.672;23.354;2023-06-24T04:28:58;69462.06;;;23.77;69.84
11692;BME280;33659;42.672;23.354;2023-06-24T04:31:25;69430.94;;;23.48;70.86
11692;BME280;33659;42.672;23.354;2023-06-24T04:33:53;69476.56;;;23.19;72.22
11692;BME280;33659;42.672;23.354;2023-06-24T04:36:20;69405.28;;;23.24;72.41
11692;BME280;33659;42.672;23.354;2023-06-24T04:38:48;69391.13;;;23.11;72.67
11692;BME280;33659;42.672;23.354;2023-06-24T04:41:15;69464.63;;;23.11;72.71
11692;BME280;33659;42.672;23.354;2023-06-24T04:43:43;69403.59;;;23.20;72.68
11692;BME280;33659;42.672;23.354;2023-06-24T04:46:10;69419.94;;;23.36;72.19
11692;BME280;33659;42.672;23.354;2023-06-24T04:48:37;69509.50;;;23.55;71.44
11692;BME280;33659;42.672;23.354;2023-06-24T04:51:03;69464.16;;;23.77;71.05
11692;BME280;33659;42.672;23.354;2023-06-24T04:53:30;69496.28;;;24.04;70.01
11692;BME280;33659;42.672;23.354;2023-06-24T04:55:58;69523.63;;;24.32;68.46
11692;BME280;33659;42.672;23.354;2023-06-24T04:58:25;69612.69;;;24.49;67.68
11692;BME280;33659;42.672;23.354;2023-06-24T05:00:52;69634.00;;;24.69;66.82
11692;BME280;33659;42.672;23.354;2023-06-24T05:03:19;69645.94;;;24.77;66.57
11692;BME280;33659;42.672;23.354;2023-06-24T05:05:46;69656.88;;;24.88;66.14
11692;BME280;33659;42.672;23.354;2023-06-24T05:08:12;69594.63;;;24.99;65.77
11692;BME280;33659;42.672;23.354;2023-06-24T05:10:39;69606.13;;;25.09;65.20
11692;BME280;33659;42.672;23.354;2023-06-24T05:13:07;69617.03;;;25.20;64.68
11692;BME280;33659;42.672;23.354;2023-06-24T05:15:34;69620.94;;;25.26;64.73
11692;BME280;33659;42.672;23.354;2023-06-24T05:18:00;69638.34;;;25.39;63.99
11692;BME280;33659;42.672;23.354;2023-06-24T05:20:27;69648.72;;;25.49;63.41
11692;BME280;33659;42.672;23.354;2023-06-24T05:22:54;69663.94;;;25.61;62.57
11692;BME280;33659;42.672;23.354;2023-06-24T05:25:21;69669.56;;;25.71;61.81
11692;BME280;33659;42.672;23.354;2023-06-24T05:27:48;69673.88;;;25.73;61.27
11692;BME280;33659;42.672;23.354;2023-06-24T05:30:16;69688.06;;;25.86;60.77
11692;BME280;33659;42.672;23.354;2023-06-24T05:32:42;69699.53;;;25.97;60.13
11692;BME280;33659;42.672;23.354;2023-06-24T05:35:09;69699.53;;;25.97;59.37
11692;BME280;33659;42.672;23.354;2023-06-24T05:37:36;69764.72;;;25.90;60.26
11692;BME280;33659;42.672;23.354;2023-06-24T05:40:04;69767.44;;;25.93;60.25
11692;BME280;33659;42.672;23.354;2023-06-24T05:42:32;69699.00;;;25.96;60.61
11692;BME280;33659;42.672;23.354;2023-06-24T05:44:59;69707.19;;;26.04;60.17
11692;BME280;33659;42.672;23.354;2023-06-24T05:47:27;69685.81;;;25.81;60.33
11692;BME280;33659;42.672;23.354;2023-06-24T05:49:53;69681.72;;;25.87;61.28
11692;BME280;33659;42.672;23.354;2023-06-24T05:52:20;69690.25;;;25.88;61.41
11692;BME280;33659;42.672;23.354;2023-06-24T05:54:47;69690.78;;;25.88;61.98
11692;BME280;33659;42.672;23.354;2023-06-24T05:57:14;69759.72;;;25.83;62.10
11692;BME280;33659;42.672;23.354;2023-06-24T05:59:41;69766.34;;;25.92;62.56
11692;BME280;33659;42.672;23.354;2023-06-24T06:02:07;69693.53;;;25.91;62.89
11692;BME280;33659;42.672;23.354;2023-06-24T06:04:36;69686.44;;;25.84;62.64
11692;BME280;33659;42.672;23.354;2023-06-24T06:07:03;69668.72;;;25.78;63.21
11692;BME280;33659;42.672;23.354;2023-06-24T06:09:30;69749.41;;;25.76;62.91
11692;BME280;33659;42.672;23.354;2023-06-24T06:11:57;69755.97;;;25.82;62.46
11692;BME280;33659;42.672;23.354;2023-06-24T06:14:23;69691.28;;;25.86;62.50
11692;BME280;33659;42.672;23.354;2023-06-24T06:16:50;69768.47;;;25.91;62.33
11692;BME280;33659;42.672;23.354;2023-06-24T06:19:17;69701.72;;;25.99;62.12
11692;BME280;33659;42.672;23.354;2023-06-24T06:21:45;69706.56;;;26.01;62.02
11692;BME280;33659;42.672;23.354;2023-06-24T06:24:12;69782.16;;;26.04;62.19
11692;BME280;33659;42.672;23.354;2023-06-24T06:26:41;69784.25;;;26.04;61.24
11692;BME280;33659;42.672;23.354;2023-06-24T06:29:09;69776.75;;;26.02;61.58
11692;BME280;33659;42.672;23.354;2023-06-24T06:31:35;69783.31;;;26.08;61.67
11692;BME280;33659;42.672;23.354;2023-06-24T06:34:02;69724.06;;;26.17;60.86
11692;BME280;33659;42.672;23.354;2023-06-24T06:36:29;69701.69;;;26.16;60.88
11692;BME280;33659;42.672;23.354;2023-06-24T06:38:57;69719.22;;;26.15;60.74
11692;BME280;33659;42.672;23.354;2023-06-24T06:41:24;69726.78;;;26.19;61.56
11692;BME280;33659;42.672;23.354;2023-06-24T06:43:51;69725.75;;;26.21;60.69
11692;BME280;33659;42.672;23.354;2023-06-24T06:46:18;69734.38;;;26.24;60.56
11692;BME280;33659;42.672;23.354;2023-06-24T06:48:45;69733.44;;;26.28;59.92
11692;BME280;33659;42.672;23.354;2023-06-24T06:51:12;69810.66;;;26.33;59.70
11692;BME280;33659;42.672;23.354;2023-06-24T06:53:38;69734.19;;;26.36;60.00
11692;BME280;33659;42.672;23.354;2023-06-24T06:56:07;69743.50;;;26.45;60.12
11692;BME280;33659;42.672;23.354;2023-06-24T06:58:33;69765.13;;;26.58;59.80
11692;BME280;33659;42.672;23.354;2023-06-24T07:01:00;69763.78;;;26.66;59.49
11692;BME280;33659;42.672;23.354;2023-06-24T07:03:30;69786.44;;;26.78;58.78
11692;BME280;33659;42.672;23.354;2023-06-24T07:05:57;69787.69;;;26.84;59.78
11692;BME280;33659;42.672;23.354;2023-06-24T07:08:24;69785.91;;;26.77;60.19
11692;BME280;33659;42.672;23.354;2023-06-24T07:10:50;69782.63;;;26.74;59.46
11692;BME280;33659;42.672;23.354;2023-06-24T07:13:18;69765.50;;;26.70;59.20
11692;BME280;33659;42.672;23.354;2023-06-24T07:15:45;69770.34;;;26.72;58.91
11692;BME280;33659;42.672;23.354;2023-06-24T07:18:12;69787.13;;;26.83;57.88
11692;BME280;33659;42.672;23.354;2023-06-24T07:20:39;69785.56;;;26.84;58.86
11692;BME280;33659;42.672;23.354;2023-06-24T07:23:05;69775.75;;;26.75;59.27
11692;BME280;33659;42.672;23.354;2023-06-24T07:25:32;69771.22;;;26.66;59.90
11692;BME280;33659;42.672;23.354;2023-06-24T07:27:59;69781.47;;;26.70;60.92
11692;BME280;33659;42.672;23.354;2023-06-24T07:30:27;69788.66;;;26.80;60.74
11692;BME280;33659;42.672;23.354;2023-06-24T07:32:54;69804.41;;;26.92;60.28
11692;BME280;33659;42.672;23.354;2023-06-24T07:35:21;69879.00;;;26.94;60.14
11692;BME280;33659;42.672;23.354;2023-06-24T07:37:48;69882.81;;;26.98;59.76
11692;BME280;33659;42.672;23.354;2023-06-24T07:40:14;69813.78;;;27.03;60.03
11692;BME280;33659;42.672;23.354;2023-06-24T07:42:41;69819.41;;;27.13;59.46
11692;BME280;33659;42.672;23.354;2023-06-24T07:45:09;69827.56;;;27.18;58.93
11692;BME280;33659;42.672;23.354;2023-06-24T07:47:37;69832.59;;;27.28;58.43
11692;BME280;33659;42.672;23.354;2023-06-24T07:50:04;69847.63;;;27.32;58.39
11692;BME280;33659;42.672;23.354;2023-06-24T07:52:31;69834.56;;;27.22;58.48
11692;BME280;33659;42.672;23.354;2023-06-24T07:54:58;69822.22;;;27.18;58.24
11692;BME280;33659;42.672;23.354;2023-06-24T07:57:26;69820.34;;;27.09;59.54
11692;BME280;33659;42.672;23.354;2023-06-24T07:59:53;69822.53;;;27.11;59.91
11692;BME280;33659;42.672;23.354;2023-06-24T08:02:20;69815.59;;;27.10;59.70
11692;BME280;33659;42.672;23.354;2023-06-24T08:04:48;69819.22;;;27.06;59.76
11692;BME280;33659;42.672;23.354;2023-06-24T08:07:15;69817.63;;;27.07;58.63
11692;BME280;33659;42.672;23.354;2023-06-24T08:09:42;69817.63;;;27.07;58.51
11692;BME280;33659;42.672;23.354;2023-06-24T08:12:09;69815.41;;;27.05;59.11
11692;BME280;33659;42.672;23.354;2023-06-24T08:14:36;69897.66;;;27.12;59.40
11692;BME280;33659;42.672;23.354;2023-06-24T08:17:03;69839.97;;;27.25;59.19
11692;BME280;33659;42.672;23.354;2023-06-24T08:19:30;69840.03;;;27.27;58.72
11692;BME280;33659;42.672;23.354;2023-06-24T08:21:58;69819.16;;;27.23;58.38
11692;BME280;33659;42.672;23.354;2023-06-24T08:24:25;69823.78;;;27.17;58.43
11692;BME280;33659;42.672;23.354;2023-06-24T08:26:51;69814.88;;;27.04;59.31
11692;BME280;33659;42.672;23.354;2023-06-24T08:29:19;69909.13;;;27.22;59.88
11692;BME280;33659;42.672;23.354;2023-06-24T08:31:45;69841.13;;;27.29;59.84
11692;BME280;33659;42.672;23.354;2023-06-24T08:34:12;69839.78;;;27.37;58.59
11692;BME280;33659;42.672;23.354;2023-06-24T08:36:39;69855.34;;;27.42;58.60
11692;BME280;33659;42.672;23.354;2023-06-24T08:39:07;69855.91;;;27.42;58.06
11692;BME280;33659;42.672;23.354;2023-06-24T08:41:34;69873.88;;;27.57;58.97
11692;BME280;33659;42.672;23.354;2023-06-24T08:44:01;69873.56;;;27.64;58.16
11692;BME280;33659;42.672;23.354;2023-06-24T08:46:28;69871.22;;;27.57;57.15
11692;BME280;33659;42.672;23.354;2023-06-24T08:49:02;69863.28;;;27.59;56.89
11692;BME280;33659;42.672;23.354;2023-06-24T08:51:37;69873.88;;;27.57;57.36
11692;BME280;33659;42.672;23.354;2023-06-24T08:54:07;69874.97;;;27.58;57.28
11692;BME280;33659;42.672;23.354;2023-06-24T08:56:35;69956.75;;;27.67;56.59
11692;BME280;33659;42.672;23.354;2023-06-24T08:59:04;69861.38;;;27.67;55.51
11692;BME280;33659;42.672;23.354;2023-06-24T09:01:31;69887.72;;;27.74;56.74
11692;BME280;33659;42.672;23.354;2023-06-24T09:03:57;69892.03;;;27.76;56.17
11692;BME280;33659;42.672;23.354;2023-06-24T09:06:24;69895.44;;;27.84;56.18
11692;BME280;33659;42.672;23.354;2023-06-24T09:08:54;69911.09;;;27.91;55.65
11692;BME280;33659;42.672;23.354;2023-06-24T09:11:26;69990.72;;;27.98;56.02
11692;BME280;33659;42.672;23.354;2023-06-24T09:13:57;69927.50;;;28.06;55.50
11692;BME280;33659;42.672;23.354;2023-06-24T09:16:24;69931.94;;;28.13;55.56
11692;BME280;33659;42.672;23.354;2023-06-24T09:18:52;69942.34;;;28.23;53.51
11692;BME280;33659;42.672;23.354;2023-06-24T09:21:23;69928.81;;;28.15;53.59
11692;BME280;33659;42.672;23.354;2023-06-24T09:23:52;69921.22;;;28.11;54.71
11692;BME280;33659;42.672;23.354;2023-06-24T09:26:19;69933.03;;;28.14;54.38
11692;BME280;33659;42.672;23.354;2023-06-24T09:28:49;69937.63;;;28.26;54.49
11692;BME280;33659;42.672;23.354;2023-06-24T09:31:17;69945.22;;;28.30;55.44
11692;BME280;33659;42.672;23.354;2023-06-24T09:33:44;69961.94;;;28.36;54.98
11692;BME280;33659;42.672;23.354;2023-06-24T09:36:12;69970.19;;;28.46;54.80
11692;BME280;33659;42.672;23.354;2023-06-24T09:38:41;69967.66;;;28.51;55.35
11692;BME280;33659;42.672;23.354;2023-06-24T09:41:10;69969.97;;;28.58;54.07
11692;BME280;33659;42.672;23.354;2023-06-24T09:43:37;69980.25;;;28.63;53.72
11692;BME280;33659;42.672;23.354;2023-06-24T09:46:06;70074.50;;;28.74;53.44
11692;BME280;33659;42.672;23.354;2023-06-24T09:48:34;70000.91;;;28.77;52.91
11692;BME280;33659;42.672;23.354;2023-06-24T09:51:02;69997.56;;;28.72;53.34
11692;BME280;33659;42.672;23.354;2023-06-24T09:53:30;69995.56;;;28.77;52.76
11692;BME280;33659;42.672;23.354;2023-06-24T09:55:59;70005.22;;;28.79;52.98
11692;BME280;33659;42.672;23.354;2023-06-24T09:58:26;70006.88;;;28.80;52.75
11692;BME280;33659;42.672;23.354;2023-06-24T10:00:55;70005.97;;;28.87;52.02
11692;BME280;33659;42.672;23.354;2023-06-24T10:03:23;70021.66;;;28.94;51.43
11692;BME280;33659;42.672;23.354;2023-06-24T10:05:50;70011.13;;;28.99;52.25
11692;BME280;33659;42.672;23.354;2023-06-24T10:08:18;70030.34;;;29.00;52.13
11692;BME280;33659;42.672;23.354;2023-06-24T10:10:45;70030.41;;;29.02;52.02
11692;BME280;33659;42.672;23.354;2023-06-24T10:13:12;70013.44;;;29.06;51.75
11692;BME280;33659;42.672;23.354;2023-06-24T10:15:39;70022.41;;;29.02;51.96
11692;BME280;33659;42.672;23.354;2023-06-24T10:18:34;70019.38;;;29.09;51.88
11692;BME280;33659;42.672;23.354;2023-06-24T10:21:01;70037.63;;;29.11;51.91
11692;BME280;33659;42.672;23.354;2023-06-24T10:23:33;70036.50;;;29.10;50.27
11692;BME280;33659;42.672;23.354;2023-06-24T10:26:00;70041.91;;;29.13;51.27
11692;BME280;33659;42.672;23.354;2023-06-24T10:31:53;70045.38;;;29.24;50.31
11692;BME280;33659;42.672;23.354;2023-06-24T10:34:26;70044.56;;;29.33;50.42
11692;BME280;33659;42.672;23.354;2023-06-24T10:36:54;70062.22;;;29.34;51.01
11692;BME280;33659;42.672;23.354;2023-06-24T10:39:47;70069.28;;;29.38;49.47
11692;BME280;33659;42.672;23.354;2023-06-24T10:42:36;70072.75;;;29.49;49.03
11692;BME280;33659;42.672;23.354;2023-06-24T10:45:17;70083.53;;;29.52;48.26
11692;BME280;33659;42.672;23.354;2023-06-24T10:47:45;70085.81;;;29.56;49.04
11692;BME280;33659;42.672;23.354;2023-06-24T10:50:14;70085.44;;;29.63;48.61
11692;BME280;33659;42.672;23.354;2023-06-24T10:52:43;70104.91;;;29.72;49.78
11692;BME280;33659;42.672;23.354;2023-06-24T10:55:10;70097.00;;;29.77;47.66
11692;BME280;33659;42.672;23.354;2023-06-24T10:57:37;70104.00;;;29.78;48.27
11692;BME280;33659;42.672;23.354;2023-06-24T11:00:04;70099.25;;;29.81;48.33
11692;BME280;33659;42.672;23.354;2023-06-24T11:02:31;70112.75;;;29.86;47.29
11692;BME280;33659;42.672;23.354;2023-06-24T11:04:59;70117.69;;;29.91;46.77
11692;BME280;33659;42.672;23.354;2023-06-24T11:07:30;70123.72;;;29.97;46.29
11692;BME280;33659;42.672;23.354;2023-06-24T11:10:02;70127.06;;;30.02;46.09
11692;BME280;33659;42.672;23.354;2023-06-24T11:12:31;70125.59;;;30.08;45.60
11692;BME280;33659;42.672;23.354;2023-06-24T11:14:59;70122.94;;;30.08;46.57
11692;BME280;33659;42.672;23.354;2023-06-24T11:17:26;70126.16;;;30.09;45.32
11692;BME280;33659;42.672;23.354;2023-06-24T11:19:53;70147.63;;;30.11;44.00
11692;BME280;33659;42.672;23.354;2023-06-24T11:22:20;70148.78;;;30.15;43.57
11692;BME280;33659;42.672;23.354;2023-06-24T11:24:48;70161.38;;;30.27;44.86
11692;BME280;33659;42.672;23.354;2023-06-24T11:27:15;70155.78;;;30.39;44.70
11692;BME280;33659;42.672;23.354;2023-06-24T11:29:41;70186.72;;;30.55;45.30
11692;BME280;33659;42.672;23.354;2023-06-24T11:32:09;70195.19;;;30.73;45.22
11692;BME280;33659;42.672;23.354;2023-06-24T11:34:36;70206.69;;;30.84;45.33
11692;BME280;33659;42.672;23.354;2023-06-24T11:37:11;70203.53;;;30.86;44.69
11692;BME280;33659;42.672;23.354;2023-06-24T11:39:38;70217.88;;;30.82;44.32
11692;BME280;33659;42.672;23.354;2023-06-24T11:42:08;70227.03;;;30.83;43.86
11692;BME280;33659;42.672;23.354;2023-06-24T11:44:35;70208.69;;;30.78;43.16
11692;BME280;33659;42.672;23.354;2023-06-24T11:47:06;70208.69;;;30.78;43.13
11692;BME280;33659;42.672;23.354;2023-06-24T11:49:48;70191.28;;;30.67;43.01
11692;BME280;33659;42.672;23.354;2023-06-24T11:52:15;70176.97;;;30.51;43.02
11692;BME280;33659;42.672;23.354;2023-06-24T11:54:42;70169.97;;;30.50;42.82
11692;BME280;33659;42.672;23.354;2023-06-24T11:57:10;70183.72;;;30.42;42.37
11692;BME280;33659;42.672;23.354;2023-06-24T11:59:38;70158.38;;;30.34;42.91
11692;BME280;33659;42.672;23.354;2023-06-24T12:02:05;70163.59;;;30.29;43.02
11692;BME280;33659;42.672;23.354;2023-06-24T12:04:33;70161.94;;;30.27;43.67
11692;BME280;33659;42.672;23.354;2023-06-24T12:07:00;70169.06;;;30.34;43.82
11692;BME280;33659;42.672;23.354;2023-06-24T12:09:27;70161.75;;;30.42;44.00
11692;BME280;33659;42.672;23.354;2023-06-24T12:11:54;70175.94;;;30.53;43.75
11692;BME280;33659;42.672;23.354;2023-06-24T12:14:22;70174.38;;;30.54;43.89
11692;BME280;33659;42.672;23.354;2023-06-24T12:16:48;70172.72;;;30.52;43.93
11692;BME280;33659;42.672;23.354;2023-06-24T12:19:15;70190.47;;;30.56;44.18
11692;BME280;33659;42.672;23.354;2023-06-24T12:21:42;70195.22;;;30.53;43.76
11692;BME280;33659;42.672;23.354;2023-06-24T12:24:10;70190.28;;;30.48;44.65
11692;BME280;33659;42.672;23.354;2023-06-24T12:26:38;70176.28;;;30.45;44.75
11692;BME280;33659;42.672;23.354;2023-06-24T12:29:05;70163.34;;;30.41;44.47
11692;BME280;33659;42.672;23.354;2023-06-24T12:31:33;70179.88;;;30.39;44.71
11692;BME280;33659;42.672;23.354;2023-06-24T12:34:00;70170.63;;;30.33;44.86
11692;BME280;33659;42.672;23.354;2023-06-24T12:36:26;70144.09;;;30.20;44.81
11692;BME280;33659;42.672;23.354;2023-06-24T12:38:53;70147.22;;;30.16;45.37
11692;BME280;33659;42.672;23.354;2023-06-24T12:41:20;70128.16;;;30.03;46.56
11692;BME280;33659;42.672;23.354;2023-06-24T12:43:47;70121.59;;;29.97;46.87
11692;BME280;33659;42.672;23.354;2023-06-24T12:46:13;70120.22;;;29.86;46.68
11692;BME280;33659;42.672;23.354;2023-06-24T12:48:41;70102.72;;;29.70;47.33
11692;BME280;33659;42.672;23.354;2023-06-24T12:51:09;70089.75;;;29.65;47.38
11692;BME280;33659;42.672;23.354;2023-06-24T12:53:35;70087.00;;;29.62;47.77
11692;BME280;33659;42.672;23.354;2023-06-24T12:56:02;70099.38;;;29.64;47.69
11692;BME280;33659;42.672;23.354;2023-06-24T12:58:29;70071.75;;;29.51;47.19